Time;durP1;ratioP1;P1;durP2;ratioP2;P2;SDS_P1;SDS_P2;PMS_P1;PMS_P2;Temp;Humidity;BMP_temperature;BMP_pressure;BME280_temperature;BME280_humidity;BME280_pressure;Samples;Min_cycle;Max_cycle;Signal;HPM_P1;HPM_P2
2022/06/25 00:01:17;;;;;;;7.18;4.68;;;;;;;16.86;96.35;100236.56;6233268;23;20025;-79
2022/06/25 00:03:45;;;;;;;5.85;4.10;;;;;;;16.78;96.52;100234.13;6237829;23;20051;-79
2022/06/25 00:06:11;;;;;;;8.57;4.40;;;;;;;16.88;96.88;100260.97;6228850;23;20029;-81
2022/06/25 00:08:39;;;;;;;7.28;4.28;;;;;;;16.86;97.01;100261.16;6226114;23;20020;-80
2022/06/25 00:11:07;;;;;;;8.02;4.70;;;;;;;16.86;96.92;100258.53;6226349;23;20082;-81
2022/06/25 00:13:33;;;;;;;11.07;5.03;;;;;;;16.81;97.17;100254.88;6222697;23;20083;-82
2022/06/25 00:16:00;;;;;;;11.95;4.95;;;;;;;16.78;97.54;100250.00;6220830;23;20559;-81
2022/06/25 00:18:27;;;;;;;5.93;5.07;;;;;;;16.74;97.50;100249.59;6221988;23;20028;-81
2022/06/25 00:20:55;;;;;;;8.07;5.05;;;;;;;16.74;96.99;100254.06;6222288;23;20079;-81
2022/06/25 00:23:21;;;;;;;9.20;5.20;;;;;;;16.71;97.53;100255.28;6223733;23;20025;-82
2022/06/25 00:25:48;;;;;;;10.45;5.18;;;;;;;16.69;97.76;100265.25;6222070;23;20024;-82
2022/06/25 00:28:15;;;;;;;7.18;4.95;;;;;;;16.65;97.75;100260.56;6221624;23;20024;-81
2022/06/25 00:30:41;;;;;;;7.88;5.28;;;;;;;16.66;97.72;100267.47;6222352;23;20021;-81
2022/06/25 00:33:08;;;;;;;8.30;5.00;;;;;;;16.58;97.47;100269.28;6222049;23;20032;-83
2022/06/25 00:35:35;;;;;;;12.30;5.10;;;;;;;16.58;97.32;100276.38;6222995;23;20082;-83
2022/06/25 00:38:03;;;;;;;14.25;5.60;;;;;;;16.66;97.34;100272.75;6224173;23;20029;-83
2022/06/25 00:40:29;;;;;;;10.57;6.55;;;;;;;16.60;97.59;100277.00;6222735;23;20024;-84
2022/06/25 00:43:46;;;;;;;6.20;5.22;;;;;;;16.55;97.49;100268.88;6230717;23;20024;-78
2022/06/25 00:46:12;;;;;;;13.80;5.95;;;;;;;16.51;97.57;100270.31;6221430;23;20032;-85
2022/06/25 00:48:39;;;;;;;6.63;5.32;;;;;;;16.54;97.57;100269.91;6223231;23;20025;-82
2022/06/25 00:51:10;;;;;;;11.05;5.53;;;;;;;16.70;97.89;100297.75;6223044;23;20044;-83
2022/06/25 00:53:42;;;;;;;9.88;5.53;;;;;;;16.60;97.72;100279.63;6227055;23;20020;-82
2022/06/25 00:56:10;;;;;;;9.05;5.30;;;;;;;16.68;97.64;100303.25;6222734;23;20075;-78
2022/06/25 00:58:40;;;;;;;9.32;5.78;;;;;;;16.68;97.49;100308.53;6214472;23;20059;-79
2022/06/25 01:01:08;;;;;;;11.93;5.70;;;;;;;16.66;97.39;100304.47;6216517;23;20027;-79
2022/06/25 01:03:35;;;;;;;8.20;5.60;;;;;;;16.68;97.52;100307.72;6216747;23;20469;-77
2022/06/25 01:06:02;;;;;;;9.95;5.82;;;;;;;16.70;97.32;100311.78;6215875;23;20051;-80
2022/06/25 01:08:29;;;;;;;11.00;5.50;;;;;;;16.66;97.51;100313.19;6215122;23;20055;-80
2022/06/25 01:10:58;;;;;;;10.38;5.53;;;;;;;16.61;97.64;100302.41;6216495;23;20078;-81
2022/06/25 01:13:24;;;;;;;8.63;5.88;;;;;;;16.61;97.76;100312.97;6219956;23;20039;-79
2022/06/25 01:15:51;;;;;;;10.90;5.53;;;;;;;16.55;97.80;100308.47;6221082;23;20055;-80
2022/06/25 01:18:18;;;;;;;10.32;5.90;;;;;;;16.52;98.07;100308.91;6220860;23;20051;-81
2022/06/25 01:20:45;;;;;;;13.32;5.90;;;;;;;16.53;97.89;100310.53;6221128;23;20021;-81
2022/06/25 01:23:14;;;;;;;10.73;6.13;;;;;;;16.48;98.08;100315.63;6220411;23;20025;-81
2022/06/25 01:25:41;;;;;;;8.82;6.38;;;;;;;16.46;98.80;100315.00;6220458;23;20025;-81
2022/06/25 01:28:09;;;;;;;10.38;6.25;;;;;;;16.48;98.65;100329.63;6220585;23;20466;-81
2022/06/25 01:30:37;;;;;;;10.73;7.10;;;;;;;16.40;98.78;100324.53;6220716;23;20036;-81
2022/06/25 01:33:03;;;;;;;8.32;6.45;;;;;;;16.48;98.86;100336.75;6220063;23;20071;-80
2022/06/25 01:35:30;;;;;;;10.52;7.50;;;;;;;16.45;98.81;100329.22;6221132;23;20052;-81
2022/06/25 01:37:57;;;;;;;11.05;6.70;;;;;;;16.46;99.03;100336.13;6220373;23;20035;-80
2022/06/25 01:40:25;;;;;;;11.52;6.38;;;;;;;16.47;98.68;100337.75;6220654;23;20028;-81
2022/06/25 01:43:00;;;;;;;11.10;5.97;;;;;;;16.47;98.66;100335.13;6221359;23;20031;-81
2022/06/25 01:45:29;;;;;;;14.32;7.40;;;;;;;16.43;98.69;100339.16;6221710;23;20405;-82
2022/06/25 01:47:55;;;;;;;15.23;6.32;;;;;;;16.46;98.93;100342.22;6221689;23;20020;-82
2022/06/25 01:50:22;;;;;;;10.63;6.85;;;;;;;16.41;99.09;100336.72;6220013;23;20025;-81
2022/06/25 01:52:49;;;;;;;11.68;6.72;;;;;;;16.39;98.71;100335.31;6222800;23;20025;-81
2022/06/25 01:55:16;;;;;;;16.15;7.00;;;;;;;16.39;99.04;100341.41;6222014;23;20016;-80
2022/06/25 01:57:44;;;;;;;12.50;6.95;;;;;;;16.36;99.23;100333.06;6222309;23;20025;-81
2022/06/25 02:00:13;;;;;;;15.70;7.10;;;;;;;16.35;99.51;100345.44;6222029;23;20032;-81
2022/06/25 02:02:42;;;;;;;10.05;6.60;;;;;;;16.33;99.39;100344.03;6222460;23;20017;-81
2022/06/25 02:05:10;;;;;;;17.80;6.80;;;;;;;16.33;99.33;100347.47;6223639;23;20071;-81
2022/06/25 02:07:36;;;;;;;11.98;6.75;;;;;;;16.27;99.40;100349.09;6219256;23;20055;-81
2022/06/25 02:10:04;;;;;;;13.85;7.00;;;;;;;16.30;99.28;100342.59;6218552;23;20055;-80
2022/06/25 02:12:30;;;;;;;13.82;6.88;;;;;;;16.31;99.28;100344.22;6219664;23;20140;-80
2022/06/25 02:14:58;;;;;;;9.05;6.63;;;;;;;16.25;99.52;100340.56;6219451;23;20040;-80
2022/06/25 02:17:25;;;;;;;10.23;6.68;;;;;;;16.24;99.62;100349.50;6218895;23;20062;-80
2022/06/25 02:19:52;;;;;;;13.60;6.65;;;;;;;16.21;99.56;100349.06;6219647;23;20027;-81
2022/06/25 02:22:18;;;;;;;16.95;7.78;;;;;;;16.17;99.91;100346.00;6222656;23;20024;-80
2022/06/25 02:24:45;;;;;;;11.90;6.85;;;;;;;16.09;100.00;100348.81;6220046;23;20397;-82
2022/06/25 02:27:12;;;;;;;9.73;6.43;;;;;;;16.11;100.00;100346.00;6219844;23;20100;-80
2022/06/25 02:29:39;;;;;;;14.90;6.63;;;;;;;16.07;100.00;100348.22;6223712;23;20112;-81
2022/06/25 02:32:09;;;;;;;17.20;7.45;;;;;;;16.03;100.00;100357.56;6220268;23;20021;-81
2022/06/25 02:34:36;;;;;;;17.33;7.55;;;;;;;15.99;100.00;100358.97;6221685;23;20024;-80
2022/06/25 02:37:02;;;;;;;17.02;8.38;;;;;;;15.98;100.00;100370.53;6223255;23;20048;-80
2022/06/25 02:39:29;;;;;;;14.60;7.13;;;;;;;15.96;100.00;100372.56;6222182;23;20032;-81
2022/06/25 02:41:56;;;;;;;11.38;6.55;;;;;;;15.93;100.00;100380.88;6221278;23;20024;-81
2022/06/25 02:44:22;;;;;;;13.93;6.72;;;;;;;15.86;100.00;100372.09;6221441;23;20048;-81
2022/06/25 02:46:49;;;;;;;9.75;6.40;;;;;;;15.86;100.00;100378.19;6222423;23;20024;-80
2022/06/25 02:49:17;;;;;;;13.23;6.43;;;;;;;15.87;100.00;100373.72;6220080;23;20349;-81
2022/06/25 02:51:44;;;;;;;15.60;6.70;;;;;;;15.86;100.00;100382.66;6223631;23;20205;-82
2022/06/25 02:54:10;;;;;;;17.95;7.03;;;;;;;15.81;100.00;100380.59;6223967;23;20051;-81
2022/06/25 02:59:21;;;;;;;13.82;7.65;;;;;;;15.85;100.00;100384.47;6222871;23;20031;-82
2022/06/25 03:01:48;;;;;;;13.73;6.90;;;;;;;15.84;100.00;100384.69;6223190;23;20021;-80
2022/06/25 03:04:14;;;;;;;11.90;6.60;;;;;;;15.90;100.00;100383.91;6224936;23;20025;-80
2022/06/25 03:06:44;;;;;;;10.90;6.30;;;;;;;15.84;99.91;100388.13;6222148;23;20020;-83
2022/06/25 03:09:10;;;;;;;12.15;6.40;;;;;;;15.80;99.59;100386.91;6224178;23;20032;-81
2022/06/25 03:11:38;;;;;;;13.00;6.88;;;;;;;15.86;99.99;100390.56;6224936;23;20020;-81
2022/06/25 03:14:04;;;;;;;17.80;6.90;;;;;;;15.79;100.00;100380.00;6223729;23;20024;-82
2022/06/25 03:16:31;;;;;;;11.82;7.13;;;;;;;15.82;100.00;100391.97;6223935;23;20044;-81
2022/06/25 03:18:58;;;;;;;10.52;7.03;;;;;;;15.80;100.00;100394.00;6224825;23;20021;-82
2022/06/25 03:21:25;;;;;;;14.43;7.57;;;;;;;15.85;100.00;100402.13;6223831;23;20056;-82
2022/06/25 03:23:53;;;;;;;11.02;6.88;;;;;;;15.83;100.00;100397.06;6224234;23;20024;-81
2022/06/25 03:26:20;;;;;;;12.40;7.13;;;;;;;15.88;100.00;100392.00;6223497;23;20024;-81
2022/06/25 03:28:48;;;;;;;10.90;7.35;;;;;;;15.88;100.00;100401.75;6224868;23;20020;-81
2022/06/25 03:31:14;;;;;;;13.85;7.63;;;;;;;15.90;100.00;100405.00;6225409;23;20029;-81
2022/06/25 03:33:41;;;;;;;10.20;7.05;;;;;;;15.87;100.00;100411.50;6228195;23;20024;-82
2022/06/25 03:36:08;;;;;;;15.93;7.03;;;;;;;15.84;100.00;100411.88;6233487;23;20021;-79
2022/06/25 03:38:35;;;;;;;12.63;7.05;;;;;;;15.89;100.00;100424.50;6235913;23;20021;-81
2022/06/25 03:43:47;;;;;;;15.45;8.27;;;;;;;15.87;100.00;100427.31;6226362;23;20084;-80
2022/06/25 03:46:14;;;;;;;13.27;7.20;;;;;;;15.81;99.77;100427.28;6221335;23;20028;-80
2022/06/25 03:48:40;;;;;;;11.27;6.68;;;;;;;15.81;99.74;100427.28;6220850;23;20027;-81
2022/06/25 03:51:07;;;;;;;12.77;6.93;;;;;;;15.75;99.36;100420.97;6223845;23;20059;-81
2022/06/25 03:53:34;;;;;;;18.42;7.15;;;;;;;15.76;99.43;100429.69;6224543;23;20020;-81
2022/06/25 03:56:00;;;;;;;14.52;7.28;;;;;;;15.80;99.52;100430.94;6222298;23;20047;-81
2022/06/25 03:58:28;;;;;;;16.75;7.10;;;;;;;15.76;99.33;100422.59;6222218;23;20024;-81
2022/06/25 04:01:03;;;;;;;13.40;6.72;;;;;;;15.90;99.30;100426.13;6224330;23;20029;-82
2022/06/25 04:03:37;;;;;;;9.85;6.38;;;;;;;15.94;99.47;100430.00;6222605;23;20031;-81
2022/06/25 04:06:12;;;;;;;12.95;6.50;;;;;;;16.18;98.94;100433.94;6222516;23;20082;-81
2022/06/25 04:08:45;;;;;;;11.73;5.78;;;;;;;16.75;96.85;100408.94;6222641;23;20051;-82
2022/06/25 04:11:12;;;;;;;10.90;5.82;;;;;;;17.44;92.60;100427.84;6223031;23;20047;-81
2022/06/25 04:13:44;;;;;;;9.52;5.13;;;;;;;17.83;89.53;100421.69;6222635;23;20040;-81
2022/06/25 04:16:11;;;;;;;10.65;4.75;;;;;;;18.12;87.73;100415.03;6222340;23;20023;-81
2022/06/25 04:18:38;;;;;;;10.13;4.65;;;;;;;18.48;85.49;100422.41;6220846;23;20021;-81
2022/06/25 04:21:04;;;;;;;11.18;4.53;;;;;;;18.67;84.53;100430.47;6216064;23;20094;-79
2022/06/25 04:23:31;;;;;;;7.97;4.40;;;;;;;19.46;81.64;100425.34;6216839;23;20063;-79
2022/06/25 04:25:58;;;;;;;12.65;4.20;;;;;;;19.80;80.29;100439.13;6215080;23;20021;-78
2022/06/25 04:31:10;;;;;;;9.82;4.30;;;;;;;19.53;78.98;100420.81;6214439;23;20032;-79
2022/06/25 04:33:36;;;;;;;8.55;4.43;;;;;;;19.69;79.99;100434.53;6213635;23;20052;-80
2022/06/25 04:36:03;;;;;;;12.10;4.70;;;;;;;19.49;80.11;100424.91;6214175;23;20044;-79
2022/06/25 04:38:30;;;;;;;7.38;4.13;;;;;;;19.52;81.13;100434.28;6214157;23;20063;-78
2022/06/25 04:40:57;;;;;;;7.53;4.35;;;;;;;19.83;79.86;100425.41;6217839;23;20025;-81
2022/06/25 04:43:24;;;;;;;11.68;4.53;;;;;;;19.57;79.95;100437.13;6218088;23;20052;-80
2022/06/25 04:45:51;;;;;;;7.35;4.50;;;;;;;19.83;79.24;100436.84;6217761;23;20349;-79
2022/06/25 04:48:18;;;;;;;9.85;4.28;;;;;;;20.46;76.64;100427.69;6216313;23;20469;-80
2022/06/25 04:50:46;;;;;;;8.00;4.30;;;;;;;20.98;75.77;100433.28;6218236;23;20035;-82
2022/06/25 04:53:12;;;;;;;11.45;4.43;;;;;;;20.32;76.41;100431.56;6219071;23;20055;-80
2022/06/25 04:55:39;;;;;;;7.25;4.30;;;;;;;20.94;76.26;100435.56;6221359;23;20040;-82
2022/06/25 04:58:06;;;;;;;12.52;4.20;;;;;;;21.28;74.84;100434.00;6221735;23;20051;-82
2022/06/25 05:00:32;;;;;;;11.63;4.45;;;;;;;21.70;74.24;100432.06;6224642;23;20052;-82
2022/06/25 05:02:59;;;;;;;12.30;4.50;;;;;;;21.95;72.08;100445.06;6221675;23;20025;-81
2022/06/25 05:05:27;;;;;;;9.63;4.40;;;;;;;22.22;70.34;100437.38;6221229;23;20021;-81
2022/06/25 05:07:54;;;;;;;8.45;4.10;;;;;;;21.96;70.98;100438.72;6222862;23;20099;-82
2022/06/25 05:10:20;;;;;;;8.50;4.50;;;;;;;21.82;71.17;100440.81;6222406;23;20020;-82
2022/06/25 05:15:31;;;;;;;10.20;4.13;;;;;;;22.03;71.34;100435.94;6220481;23;20035;-80
2022/06/25 05:17:58;;;;;;;10.35;4.32;;;;;;;22.47;70.18;100447.72;6220415;23;20071;-80
2022/06/25 05:20:24;;;;;;;11.95;4.38;;;;;;;23.26;67.76;100445.88;6220635;23;20028;-81
2022/06/25 05:22:52;;;;;;;7.43;4.30;;;;;;;23.69;65.16;100450.53;6221736;23;20020;-82
2022/06/25 05:25:19;;;;;;;11.25;4.15;;;;;;;23.98;62.60;100448.50;6221047;23;20020;-81
2022/06/25 05:27:46;;;;;;;5.80;3.95;;;;;;;24.52;61.67;100453.16;6222510;23;20037;-82
2022/06/25 05:30:13;;;;;;;5.80;3.83;;;;;;;24.79;61.29;100459.28;6221906;23;20080;-82
2022/06/25 05:32:39;;;;;;;6.95;3.70;;;;;;;24.98;60.31;100465.13;6222230;23;20024;-82
2022/06/25 05:35:08;;;;;;;7.03;4.20;;;;;;;25.69;59.63;100457.59;6217713;23;20028;-80
2022/06/25 05:37:35;;;;;;;7.03;3.85;;;;;;;26.46;55.83;100464.91;6219363;23;20357;-79
2022/06/25 05:40:04;;;;;;;8.30;3.80;;;;;;;26.24;56.92;100466.94;6220206;23;20024;-80
2022/06/25 05:42:30;;;;;;;8.82;3.67;;;;;;;26.19;56.32;100465.03;6224384;23;20024;-81
2022/06/25 05:44:57;;;;;;;6.80;3.85;;;;;;;26.63;54.18;100468.13;6223163;23;20024;-81
2022/06/25 05:47:23;;;;;;;8.00;4.10;;;;;;;26.76;53.93;100482.91;6223150;23;20032;-81
2022/06/25 05:49:50;;;;;;;8.60;3.92;;;;;;;26.78;53.05;100470.03;6221265;23;20025;-80
2022/06/25 05:52:17;;;;;;;9.60;3.65;;;;;;;25.27;55.43;100481.66;6223368;23;20032;-82
2022/06/25 05:54:43;;;;;;;9.07;4.15;;;;;;;25.98;56.42;100480.25;6223657;23;20025;-81
2022/06/25 05:57:11;;;;;;;14.07;4.28;;;;;;;27.24;52.58;100483.50;6225244;23;20020;-81
2022/06/25 05:59:38;;;;;;;8.43;3.67;;;;;;;27.13;51.56;100482.69;6223726;23;20465;-80
2022/06/25 06:02:05;;;;;;;8.23;3.75;;;;;;;26.55;52.78;100484.75;6222105;23;20055;-79
2022/06/25 06:04:32;;;;;;;8.13;3.58;;;;;;;27.03;52.42;100482.69;6222375;23;20024;-82
2022/06/25 06:06:59;;;;;;;13.40;4.05;;;;;;;27.24;52.37;100488.88;6221333;23;20021;-80
2022/06/25 06:09:27;;;;;;;7.82;3.70;;;;;;;27.96;50.81;100485.78;6222878;23;20051;-82
2022/06/25 06:11:54;;;;;;;6.10;3.63;;;;;;;27.79;50.39;100479.94;6224390;23;20024;-81
2022/06/25 06:14:22;;;;;;;8.45;3.92;;;;;;;28.16;29.63;100484.09;6226413;23;20397;-82
2022/06/25 06:16:49;;;;;;;8.93;3.63;;;;;;;28.13;48.77;100396.69;6225160;23;20071;-81
2022/06/25 06:19:16;;;;;;;7.78;3.35;;;;;;;27.80;48.02;100567.59;6225324;23;20028;-82
2022/06/25 06:21:43;;;;;;;6.03;3.63;;;;;;;27.88;47.55;100462.16;6226308;23;20115;-82
2022/06/25 06:24:10;;;;;;;11.20;3.95;;;;;;;28.18;37.33;100466.59;6226269;23;20024;-81
2022/06/25 06:26:39;;;;;;;7.57;3.60;;;;;;;28.07;47.10;100460.44;6225723;23;20024;-82
2022/06/25 06:29:05;;;;;;;10.73;3.58;;;;;;;27.93;46.97;100461.31;6225587;23;20477;-81
2022/06/25 06:31:36;;;;;;;6.47;3.70;;;;;;;27.43;46.93;100461.16;6224891;23;20055;-78
2022/06/25 06:34:03;;;;;;;9.07;3.33;;;;;;;28.50;46.63;100460.78;6222721;23;20372;-79
2022/06/25 06:36:31;;;;;;;9.25;3.60;;;;;;;29.14;44.87;100469.75;6223288;23;20285;-81
2022/06/25 06:38:57;;;;;;;6.28;3.78;;;;;;;28.82;44.10;100465.72;6224879;23;20114;-82
2022/06/25 06:41:24;;;;;;;5.25;3.40;;;;;;;28.48;47.40;100471.03;6226848;23;20032;-82
2022/06/25 06:43:51;;;;;;;6.70;3.58;;;;;;;28.77;44.25;100467.63;6227713;23;20025;-81
2022/06/25 06:46:19;;;;;;;5.72;3.42;;;;;;;28.39;45.33;100461.91;6226340;23;20020;-82
2022/06/25 06:48:47;;;;;;;5.95;3.60;;;;;;;29.22;44.32;100459.19;6225559;23;20479;-81
2022/06/25 06:51:14;;;;;;;7.57;4.00;;;;;;;28.65;46.01;100471.47;6226183;23;20364;-82
2022/06/25 06:53:40;;;;;;;4.55;3.00;;;;;;;28.48;46.23;100468.34;6226823;23;20025;-82
2022/06/25 06:58:38;;;;;;;6.80;3.20;;;;;;;28.58;45.65;100481.72;6214928;23;20016;-82
2022/06/25 07:01:06;;;;;;;5.05;3.08;;;;;;;28.84;44.47;100457.34;6215898;23;20436;-86
2022/06/25 07:03:42;;;;;;;6.05;3.35;;;;;;;29.55;42.43;100441.34;6215722;23;20025;-86
2022/06/25 07:06:19;;;;;;;4.25;3.10;;;;;;;29.09;43.93;100459.84;6217059;23;20105;-85
2022/06/25 07:08:49;;;;;;;7.13;3.17;;;;;;;28.89;43.79;100451.91;6217450;23;20021;-85
2022/06/25 07:11:39;;;;;;;6.68;3.00;;;;;;;29.63;43.35;100454.19;6215812;23;20092;-84
2022/06/25 07:14:06;;;;;;;6.05;3.20;;;;;;;30.02;42.70;100462.13;6216969;23;20099;-88
2022/06/25 07:16:34;;;;;;;5.38;3.47;;;;;;;29.89;42.74;100453.88;6215781;23;20094;-85
2022/06/25 07:19:02;;;;;;;5.32;3.30;;;;;;;29.72;42.42;100457.06;6215981;23;20016;-83
2022/06/25 07:21:31;;;;;;;5.70;3.17;;;;;;;30.07;42.22;100460.44;6216159;23;20024;-83
2022/06/25 07:23:59;;;;;;;7.85;3.67;;;;;;;27.35;45.95;100459.03;6219649;23;20032;-86
2022/06/25 07:29:49;;;;;;;7.25;3.50;;;;;;;26.98;47.15;100474.63;6211390;23;20020;-83
2022/06/25 07:33:17;;;;;;;8.43;3.30;;;;;;;28.40;46.50;100448.19;6222300;23;20040;-82
2022/06/25 07:35:53;;;;;;;6.72;3.13;;;;;;;28.81;45.71;100457.91;6100048;23;20067;-83
2022/06/25 07:38:37;;;;;;;16.67;3.47;;;;;;;28.32;43.41;100464.13;6100049;23;20101;-82
2022/06/25 07:41:15;;;;;;;4.90;3.05;;;;;;;29.32;44.89;100437.50;6103477;23;20046;-83
2022/06/25 07:46:35;;;;;;;9.07;3.35;;;;;;;30.91;40.29;100445.19;6220010;23;20174;-82
2022/06/25 07:49:02;;;;;;;9.13;3.30;;;;;;;31.42;37.67;100464.03;6223024;23;20024;-81
2022/06/25 07:54:16;;;;;;;5.45;2.95;;;;;;;31.12;37.83;100459.16;6222234;23;20100;-81
2022/06/25 07:56:48;;;;;;;10.07;2.90;;;;;;;31.32;37.23;100456.09;6224604;23;20279;-82
2022/06/25 07:59:14;;;;;;;9.73;3.55;;;;;;;31.40;37.11;100435.69;6227096;23;20042;-82
2022/06/25 08:01:45;;;;;;;12.55;3.83;;;;;;;31.31;37.71;100432.88;6220701;23;20094;-83
2022/06/25 08:04:12;;;;;;;6.23;2.67;;;;;;;31.56;36.47;100440.53;6220484;23;20039;-82
2022/06/25 08:06:39;;;;;;;7.10;3.13;;;;;;;31.51;36.35;100454.13;6220799;23;20020;-82
2022/06/25 08:09:06;;;;;;;15.32;3.78;;;;;;;31.16;36.22;100458.31;6220409;23;20021;-82
2022/06/25 08:11:39;;;;;;;7.47;3.08;;;;;;;31.05;35.88;100448.72;6220417;23;20032;-83
2022/06/25 08:14:08;;;;;;;5.78;2.80;;;;;;;31.84;35.75;100440.53;6220729;23;20021;-83
2022/06/25 08:16:38;;;;;;;4.40;2.70;;;;;;;31.73;36.04;100450.75;6220593;23;20354;-83
2022/06/25 08:19:15;;;;;;;7.65;3.00;;;;;;;31.83;36.00;100442.44;6219725;23;20475;-82
2022/06/25 08:21:44;;;;;;;4.47;2.65;;;;;;;32.27;34.34;100451.81;6220363;23;20328;-82
2022/06/25 08:24:14;;;;;;;6.22;2.95;;;;;;;31.83;33.53;100442.44;6219628;23;20017;-82
2022/06/25 08:26:46;;;;;;;6.93;2.90;;;;;;;30.23;36.15;100453.75;6221124;23;20056;-82
2022/06/25 08:29:13;;;;;;;5.15;2.42;;;;;;;30.49;36.82;100444.19;6220357;23;20412;-83
2022/06/25 08:31:40;;;;;;;8.75;2.95;;;;;;;30.78;36.49;100446.72;6221903;23;20025;-83
2022/06/25 08:34:09;;;;;;;5.80;2.70;;;;;;;29.99;36.48;100457.31;6218304;23;20456;-85
2022/06/25 08:36:39;;;;;;;11.98;3.03;;;;;;;30.18;37.62;100470.03;6220147;23;20047;-83
2022/06/25 08:39:13;;;;;;;6.60;2.78;;;;;;;30.13;37.11;100465.50;6221022;23;20024;-83
2022/06/25 08:41:46;;;;;;;5.55;2.83;;;;;;;30.49;37.18;100463.09;6219548;23;20389;-82
2022/06/25 08:44:13;;;;;;;5.10;2.55;;;;;;;29.90;39.04;100467.09;6221230;23;20384;-83
2022/06/25 08:46:40;;;;;;;4.28;2.67;;;;;;;30.20;37.66;100467.84;6219458;23;20024;-82
2022/06/25 08:49:09;;;;;;;6.22;2.70;;;;;;;29.37;39.83;100463.59;6217004;23;20027;-82
2022/06/25 08:51:38;;;;;;;5.70;2.80;;;;;;;28.73;40.30;100468.19;6216063;23;20021;-85
2022/06/25 08:54:18;;;;;;;7.05;3.13;;;;;;;29.06;41.74;100463.09;6215527;23;20117;-84
2022/06/25 08:57:35;;;;;;;5.40;2.70;;;;;;;30.09;39.68;100452.88;6218188;23;20032;-84
2022/06/25 09:00:42;;;;;;;5.05;2.80;;;;;;;30.11;38.10;100472.28;6223404;23;20020;-82
2022/06/25 09:03:21;;;;;;;6.20;2.92;;;;;;;30.10;37.99;100465.28;6223315;23;20079;-85
2022/06/25 09:05:53;;;;;;;5.75;2.67;;;;;;;30.12;36.80;100452.28;6221435;23;20025;-84
2022/06/25 09:08:29;;;;;;;9.23;3.00;;;;;;;30.51;36.36;100446.59;6220413;23;20031;-83
2022/06/25 09:10:58;;;;;;;5.57;3.08;;;;;;;30.71;37.50;100457.13;6220375;23;20028;-83
2022/06/25 09:13:36;;;;;;;9.98;2.80;;;;;;;30.25;38.63;100463.16;6222191;23;20052;-84
2022/06/25 09:16:12;;;;;;;8.13;3.35;;;;;;;28.97;40.46;100440.53;6220671;23;20020;-85
2022/06/25 09:19:08;;;;;;;6.47;3.50;;;;;;;29.66;38.58;100426.66;6223100;23;20434;-85
2022/06/25 09:21:44;;;;;;;7.55;3.17;;;;;;;29.46;38.73;100442.25;6226423;23;20020;-84
2022/06/25 09:24:24;;;;;;;7.10;3.03;;;;;;;29.57;40.02;100432.97;6222181;23;20031;-83
2022/06/25 09:26:57;;;;;;;5.32;3.08;;;;;;;30.02;39.30;100445.94;6220191;23;20024;-85
2022/06/25 09:29:37;;;;;;;7.30;3.10;;;;;;;30.16;38.59;100434.44;6222058;23;20026;-84
2022/06/25 09:32:10;;;;;;;4.18;3.28;;;;;;;29.54;38.46;100422.75;6221492;23;20392;-84
2022/06/25 09:38:17;;;;;;;8.30;3.25;;;;;;;28.09;40.63;100426.00;6193666;23;20405;-86
2022/06/25 09:40:57;;;;;;;6.55;3.00;;;;;;;27.83;41.76;100435.28;6228169;23;20031;-84
2022/06/25 09:43:47;;;;;;;7.22;2.97;;;;;;;27.93;41.63;100432.53;6227713;23;20031;-85
2022/06/25 09:46:14;;;;;;;4.47;2.70;;;;;;;27.99;40.40;100442.19;6229770;23;20080;-85
2022/06/25 09:48:52;;;;;;;5.93;2.72;;;;;;;27.93;41.21;100432.53;6230190;23;20028;-85
2022/06/25 09:51:23;;;;;;;5.72;3.03;;;;;;;27.09;42.67;100438.66;6232140;23;20120;-84
2022/06/25 09:53:54;;;;;;;7.60;2.80;;;;;;;27.20;43.33;100439.44;6228771;23;20069;-84
2022/06/25 09:56:23;;;;;;;8.43;3.20;;;;;;;26.52;45.29;100438.84;6227234;23;20031;-85
2022/06/25 09:59:11;;;;;;;6.80;3.00;;;;;;;27.27;43.58;100435.41;6224232;23;20035;-85
2022/06/25 10:01:40;;;;;;;4.55;2.88;;;;;;;28.51;41.36;100424.72;6226129;23;20040;-84
2022/06/25 10:04:15;;;;;;;8.52;3.20;;;;;;;27.84;42.38;100446.84;6227531;23;20025;-84
2022/06/25 10:06:46;;;;;;;7.35;3.00;;;;;;;28.26;41.22;100441.84;6226472;23;20465;-84
2022/06/25 10:09:43;;;;;;;7.15;3.10;;;;;;;27.71;41.83;100419.47;6221804;23;20048;-84
2022/06/25 10:12:43;;;;;;;5.32;3.10;;;;;;;27.62;41.62;100404.19;6229796;23;20028;-85
2022/06/25 10:20:37;;;;;;;7.25;3.53;;;;;;;28.26;39.48;100430.28;6222662;23;20019;-86
2022/06/25 10:23:05;;;;;;;8.68;3.45;;;;;;;28.68;39.80;100400.09;6225276;23;20111;-85
2022/06/25 10:25:45;;;;;;;5.10;3.17;;;;;;;29.58;39.42;100407.63;6227133;23;20067;-82
2022/06/25 10:28:14;;;;;;;6.68;2.45;;;;;;;29.04;37.15;100400.59;6221626;23;20017;-85
2022/06/25 10:33:26;;;;;;;6.95;2.90;;;;;;;27.48;40.87;100405.78;6220903;23;20070;-81
2022/06/25 10:35:57;;;;;;;5.60;2.92;;;;;;;27.89;41.87;100417.22;6222298;23;20024;-82
2022/06/25 10:38:25;;;;;;;4.32;2.72;;;;;;;28.63;39.42;100418.97;6222360;23;20074;-79
2022/06/25 10:40:56;;;;;;;6.43;3.05;;;;;;;28.21;39.72;100411.44;6222716;23;20099;-80
2022/06/25 10:43:42;;;;;;;6.53;3.10;;;;;;;28.68;38.14;100421.63;6222597;23;20025;-81
2022/06/25 10:46:29;;;;;;;4.93;2.97;;;;;;;29.49;40.73;100409.34;6222443;23;20107;-79
2022/06/25 10:49:06;;;;;;;8.63;3.13;;;;;;;29.19;40.60;100405.84;6223003;23;20537;-81
2022/06/25 10:51:40;;;;;;;4.50;3.15;;;;;;;29.24;39.05;100407.69;6222496;23;20028;-79
2022/06/25 10:54:12;;;;;;;5.60;3.28;;;;;;;28.99;40.56;100414.13;6222238;23;20035;-81
2022/06/25 10:56:45;;;;;;;5.80;3.38;;;;;;;29.27;39.82;100412.53;6221792;23;20479;-82
2022/06/25 10:59:31;;;;;;;8.00;3.10;;;;;;;27.73;40.76;100405.75;6222310;23;20017;-79
2022/06/25 11:01:59;;;;;;;4.65;2.92;;;;;;;27.89;39.99;100412.66;6222915;23;20027;-84
2022/06/25 11:04:26;;;;;;;7.95;2.85;;;;;;;26.72;41.76;100407.50;6221803;23;20032;-81
2022/06/25 11:07:08;;;;;;;9.15;3.40;;;;;;;26.36;44.02;100401.28;6223564;23;20039;-82
2022/06/25 11:09:35;;;;;;;5.28;2.97;;;;;;;27.29;42.46;100398.34;6222542;23;20025;-82
2022/06/25 11:12:02;;;;;;;4.47;2.97;;;;;;;27.96;41.15;100391.66;6222831;23;20462;-83
2022/06/25 11:14:28;;;;;;;6.57;3.13;;;;;;;27.74;43.65;100391.22;6223595;23;20090;-83
2022/06/25 11:16:56;;;;;;;4.95;3.42;;;;;;;28.82;40.24;100395.72;6223324;23;20123;-81
2022/06/25 11:19:24;;;;;;;4.75;2.97;;;;;;;28.20;40.95;100391.00;6222692;23;20417;-80
2022/06/25 11:21:52;;;;;;;5.65;3.03;;;;;;;28.29;40.82;100400.13;6218883;23;20389;-81
2022/06/25 11:24:22;;;;;;;6.95;3.10;;;;;;;28.55;42.73;100406.91;6221834;23;20101;-81
2022/06/25 11:29:46;;;;;;;4.97;2.67;;;;;;;28.97;40.40;100398.25;6221595;23;20039;-82
2022/06/25 11:32:23;;;;;;;4.30;2.85;;;;;;;28.83;38.98;100380.34;6220316;23;20103;-85
2022/06/25 11:34:52;;;;;;;5.38;3.50;;;;;;;29.39;38.77;100400.22;6220715;23;20413;-83
2022/06/25 11:37:19;;;;;;;5.05;3.20;;;;;;;29.27;39.72;100407.94;6219372;23;20040;-81
2022/06/25 11:39:51;;;;;;;5.28;3.00;;;;;;;29.09;40.15;100387.09;6220057;23;20025;-82
2022/06/25 11:42:22;;;;;;;6.47;3.00;;;;;;;29.38;39.95;100395.94;6220921;23;20028;-81
2022/06/25 11:44:51;;;;;;;3.90;2.57;;;;;;;29.16;39.62;100384.06;6220657;23;20099;-81
2022/06/25 11:47:20;;;;;;;4.53;2.72;;;;;;;29.25;37.80;100393.94;6221332;23;20039;-82
2022/06/25 11:49:48;;;;;;;3.45;2.35;;;;;;;28.97;37.17;100405.53;6224242;23;20047;-83
2022/06/25 11:52:25;;;;;;;4.35;2.40;;;;;;;28.96;39.19;100395.84;6219572;23;20456;-82
2022/06/25 11:54:54;;;;;;;5.35;2.72;;;;;;;29.21;37.20;100403.69;6219001;23;20031;-83
2022/06/25 11:57:24;;;;;;;5.32;2.67;;;;;;;29.12;37.54;100418.84;6221782;23;20467;-80
2022/06/25 11:59:52;;;;;;;5.93;2.90;;;;;;;28.74;39.56;100433.97;6220752;23;20020;-81
2022/06/25 12:02:19;;;;;;;4.90;3.03;;;;;;;28.67;39.31;100418.13;6219027;23;20021;-83
2022/06/25 12:04:52;;;;;;;5.38;2.58;;;;;;;28.60;39.98;100419.53;6217506;23;20024;-83
2022/06/25 12:07:20;;;;;;;6.45;3.00;;;;;;;28.79;41.80;100419.66;6220259;23;20025;-81
2022/06/25 12:09:48;;;;;;;6.63;2.90;;;;;;;28.82;39.11;100413.75;6219765;23;20024;-83
2022/06/25 12:12:19;;;;;;;5.57;2.65;;;;;;;28.99;39.21;100416.81;6220520;23;20043;-85